Terminal Aerodrome Forecast
Issued by NWS

Home | Current Version | Previous Version | Text Only | Print | Product List | Glossary On
Versions: 1 2 3 4 5 6 7 8 9 10 11 12
000
FTUS45 KRIW 212300
TAFCPR
TAF
KCPR 212325Z 2200/2224 23018G28KT P6SM VCSH SCT090 BKN150
     FM220300 24008KT P6SM SCT100
     FM221700 23014G24KT P6SM SCT070=

USA.gov is the U.S. government's official web portal to all federal, state and local government web resources and services.